Time,TemperatureF,DewpointF,PressureIn,WindDirection,WindDirectionDegrees,WindSpeedMPH,WindSpeedGustMPH,Humidity,HourlyPrecipIn,Conditions,Clouds,dailyrainin,SoftwareType,DateUTC
2013-01-07 00:03:00,48.4,45.9,30.12,NE,45,0.0,0.0,91,0.00,,,0.00,,2013-01-06 23:03:00,
2013-01-07 00:08:00,48.4,45.9,30.12,NE,45,0.0,0.0,91,0.00,,,0.00,,2013-01-06 23:08:00,
2013-01-07 00:13:00,48.4,45.9,30.15,NE,45,0.8,0.0,91,0.00,,,0.00,,2013-01-06 23:13:00,
2013-01-07 00:18:00,48.4,45.9,30.15,NE,45,0.4,0.0,91,0.00,,,0.00,,2013-01-06 23:18:00,
2013-01-07 00:23:00,48.6,46.0,30.12,NE,45,0.4,0.4,91,0.00,,,0.00,,2013-01-06 23:23:00,
2013-01-07 00:28:00,48.4,45.5,30.12,NE,45,0.8,1.3,90,0.00,,,0.00,,2013-01-06 23:28:00,
2013-01-07 00:33:00,48.4,45.5,30.15,North,0,0.8,0.8,90,0.00,,,0.00,,2013-01-06 23:33:00,
2013-01-07 00:38:00,48.4,45.5,30.15,North,0,0.0,1.7,90,0.00,,,0.00,,2013-01-06 23:38:00,
2013-01-07 00:48:00,48.4,45.5,30.12,North,0,0.0,0.0,90,0.00,,,0.00,,2013-01-06 23:48:00,
2013-01-07 00:53:00,48.4,45.5,30.15,North,0,0.4,1.3,90,0.00,,,0.00,,2013-01-06 23:53:00,
2013-01-07 00:58:00,48.4,45.5,30.15,North,0,0.0,0.4,90,0.00,,,0.00,,2013-01-06 23:58:00,
2013-01-07 01:03:00,48.4,45.5,30.15,North,0,0.0,0.4,90,0.00,,,0.00,,2013-01-07 00:03:00,
2013-01-07 01:08:00,48.4,45.5,30.12,North,0,0.0,0.0,90,0.00,,,0.00,,2013-01-07 00:08:00,
2013-01-07 18:12:00,51.4,42.3,30.20,East,90,0.0,0.4,71,0.00,,,0.00,,2013-01-07 17:12:00,
2013-01-07 18:17:00,51.4,42.3,30.20,East,90,0.4,0.4,71,0.00,,,0.00,,2013-01-07 17:17:00,
2013-01-07 18:22:00,51.3,42.1,30.20,East,90,0.4,0.0,71,0.00,,,0.00,,2013-01-07 17:22:00,
2013-01-07 18:28:00,51.3,42.1,30.20,ESE,112,0.8,0.8,71,0.00,,,0.00,,2013-01-07 17:28:00,
2013-01-07 18:33:00,51.3,42.1,30.20,East,90,0.4,1.3,71,0.00,,,0.00,,2013-01-07 17:33:00,
2013-01-07 18:38:00,51.1,41.9,30.20,East,90,0.4,2.6,71,0.00,,,0.00,,2013-01-07 17:38:00,
2013-01-07 18:43:00,51.1,41.5,30.20,East,90,0.8,2.2,70,0.00,,,0.00,,2013-01-07 17:43:00,
2013-01-07 18:48:00,51.1,41.5,30.20,SE,135,0.4,0.4,70,0.00,,,0.00,,2013-01-07 17:48:00,
2013-01-07 18:53:00,51.1,41.5,30.20,NE,45,0.0,0.0,70,0.00,,,0.00,,2013-01-07 17:53:00,
2013-01-07 18:58:00,51.1,41.2,30.20,NE,45,0.4,1.7,69,0.00,,,0.00,,2013-01-07 17:58:00,
2013-01-07 19:03:00,51.1,41.2,30.20,NE,45,0.8,0.8,69,0.00,,,0.00,,2013-01-07 18:03:00,
2013-01-07 19:08:00,51.1,41.2,30.20,East,90,0.4,0.8,69,0.00,,,0.00,,2013-01-07 18:08:00,
2013-01-07 19:13:00,50.9,40.6,30.20,ENE,67,0.0,0.0,68,0.00,,,0.00,,2013-01-07 18:13:00,
2013-01-07 19:18:00,50.9,40.6,30.20,NE,45,0.0,0.0,68,0.00,,,0.00,,2013-01-07 18:18:00,
2013-01-07 19:23:00,50.7,40.5,30.20,ENE,67,0.4,0.8,68,0.00,,,0.00,,2013-01-07 18:23:00,
2013-01-07 19:28:00,50.7,40.1,30.20,East,90,0.4,0.0,67,0.00,,,0.00,,2013-01-07 18:28:00,
2013-01-07 19:33:00,50.7,40.1,30.23,East,90,0.4,1.3,67,0.00,,,0.00,,2013-01-07 18:33:00,
2013-01-07 19:38:00,50.7,39.7,30.23,ESE,112,1.3,1.7,66,0.00,,,0.00,,2013-01-07 18:38:00,
2013-01-07 19:43:00,50.7,39.7,30.23,NE,45,1.3,2.6,66,0.00,,,0.00,,2013-01-07 18:43:00,
2013-01-07 19:48:00,50.9,39.4,30.23,East,90,0.8,0.8,65,0.00,,,0.00,,2013-01-07 18:48:00,
2013-01-07 19:53:00,50.7,39.2,30.20,SE,135,0.8,2.2,65,0.00,,,0.00,,2013-01-07 18:53:00,
2013-01-07 19:58:00,50.7,39.2,30.20,SE,135,0.0,0.4,65,0.00,,,0.00,,2013-01-07 18:58:00,
2013-01-07 20:03:00,50.7,39.2,30.20,NE,45,1.3,3.1,65,0.00,,,0.00,,2013-01-07 19:03:00,
2013-01-07 20:08:00,50.7,39.2,30.20,NE,45,1.3,2.6,65,0.00,,,0.00,,2013-01-07 19:08:00,
2013-01-07 20:13:00,50.7,38.8,30.23,SE,135,1.3,1.7,64,0.00,,,0.00,,2013-01-07 19:13:00,
2013-01-07 20:18:00,50.9,39.0,30.23,NE,45,1.7,4.0,64,0.00,,,0.00,,2013-01-07 19:18:00,
2013-01-07 20:23:00,50.9,39.0,30.23,ENE,67,1.3,1.3,64,0.00,,,0.00,,2013-01-07 19:23:00,
2013-01-07 20:28:00,50.9,39.0,30.23,ESE,112,1.3,1.3,64,0.00,,,0.00,,2013-01-07 19:28:00,
2013-01-07 20:33:00,50.9,39.0,30.23,East,90,1.3,1.3,64,0.00,,,0.00,,2013-01-07 19:33:00,
2013-01-07 20:38:00,50.9,38.7,30.23,East,90,1.3,1.3,63,0.00,,,0.00,,2013-01-07 19:38:00,
2013-01-07 20:43:00,51.1,39.2,30.23,East,90,1.3,1.3,64,0.00,,,0.00,,2013-01-07 19:43:00,
2013-01-07 20:48:00,51.1,38.8,30.23,East,90,1.3,3.1,63,0.00,,,0.00,,2013-01-07 19:48:00,
2013-01-07 20:53:00,50.9,38.7,30.23,NE,45,0.4,0.4,63,0.00,,,0.00,,2013-01-07 19:53:00,
2013-01-07 20:58:00,50.5,38.3,30.23,ESE,112,0.4,2.2,63,0.00,,,0.00,,2013-01-07 19:58:00,
2013-01-07 21:03:00,50.5,38.3,30.23,ESE,112,0.8,0.8,63,0.00,,,0.00,,2013-01-07 20:03:00,
2013-01-07 21:08:00,50.7,38.8,30.23,SE,135,1.3,1.3,64,0.00,,,0.00,,2013-01-07 20:08:00,
2013-01-07 21:13:00,50.7,38.5,30.23,SE,135,1.3,1.3,63,0.00,,,0.00,,2013-01-07 20:13:00,
2013-01-07 21:18:00,50.9,38.7,30.23,East,90,1.7,1.7,63,0.00,,,0.00,,2013-01-07 20:18:00,
2013-01-07 21:23:00,51.1,38.8,30.23,NE,45,1.7,4.4,63,0.00,,,0.00,,2013-01-07 20:23:00,
2013-01-07 21:28:00,51.1,38.5,30.23,East,90,2.2,2.2,62,0.00,,,0.00,,2013-01-07 20:28:00,
2013-01-07 21:33:00,51.3,38.7,30.23,East,90,2.6,4.0,62,0.00,,,0.00,,2013-01-07 20:33:00,
2013-01-07 21:38:00,51.1,38.5,30.23,ESE,112,2.2,2.6,62,0.00,,,0.00,,2013-01-07 20:38:00,
2013-01-07 21:43:00,51.1,38.5,30.23,SE,135,2.2,2.2,62,0.00,,,0.00,,2013-01-07 20:43:00,
2013-01-07 21:48:00,51.1,38.5,30.23,SE,135,1.7,1.7,62,0.00,,,0.00,,2013-01-07 20:48:00,
2013-01-07 21:53:00,51.3,38.7,30.26,SE,135,1.7,4.4,62,0.00,,,0.00,,2013-01-07 20:53:00,
2013-01-07 21:58:00,51.3,38.7,30.26,SE,135,1.3,4.4,62,0.00,,,0.00,,2013-01-07 20:58:00,
2013-01-07 22:03:00,51.4,38.8,30.23,East,90,1.3,1.3,62,0.00,,,0.00,,2013-01-07 21:03:00,
2013-01-07 22:08:00,51.3,38.7,30.23,SE,135,0.4,0.0,62,0.00,,,0.00,,2013-01-07 21:08:00,
2013-01-07 22:13:00,51.1,38.5,30.26,East,90,0.4,1.3,62,0.00,,,0.00,,2013-01-07 21:13:00,
2013-01-07 22:18:00,51.1,38.5,30.26,ESE,112,0.4,0.4,62,0.00,,,0.00,,2013-01-07 21:18:00,
2013-01-07 22:23:00,51.3,38.7,30.23,ESE,112,0.0,1.7,62,0.00,,,0.00,,2013-01-07 21:23:00,
2013-01-07 22:28:00,51.3,38.7,30.23,ESE,112,0.4,0.0,62,0.00,,,0.00,,2013-01-07 21:28:00,
2013-01-07 22:33:00,51.3,38.7,30.26,SE,135,0.4,0.8,62,0.00,,,0.00,,2013-01-07 21:33:00,
2013-01-07 22:38:00,51.4,38.8,30.26,SE,135,1.3,1.3,62,0.00,,,0.00,,2013-01-07 21:38:00,
2013-01-07 22:43:00,51.4,38.8,30.26,SE,135,1.3,2.2,62,0.00,,,0.00,,2013-01-07 21:43:00,
2013-01-07 22:48:00,51.6,38.8,30.26,SE,135,0.8,1.7,62,0.00,,,0.00,,2013-01-07 21:48:00,
2013-01-07 22:53:00,51.6,38.5,30.23,SE,135,0.8,1.7,61,0.00,,,0.00,,2013-01-07 21:53:00,
2013-01-07 22:58:00,51.4,38.3,30.23,SE,135,0.4,1.3,61,0.00,,,0.00,,2013-01-07 21:58:00,
2013-01-07 23:03:00,51.3,37.8,30.26,SE,135,0.8,1.3,60,0.00,,,0.00,,2013-01-07 22:03:00,
2013-01-07 23:08:00,51.1,37.6,30.26,SE,135,0.4,0.4,60,0.00,,,0.00,,2013-01-07 22:08:00,
2013-01-07 23:13:00,50.9,37.4,30.26,SE,135,0.4,0.4,60,0.00,,,0.00,,2013-01-07 22:13:00,
2013-01-07 23:18:00,50.9,37.4,30.26,SE,135,0.4,0.8,60,0.00,,,0.00,,2013-01-07 22:18:00,
2013-01-07 23:23:00,50.9,37.4,30.26,SE,135,0.4,1.3,60,0.00,,,0.00,,2013-01-07 22:23:00,
2013-01-07 23:28:00,50.9,37.0,30.26,East,90,0.4,1.3,59,0.00,,,0.00,,2013-01-07 22:28:00,
2013-01-07 23:33:00,50.9,37.0,30.26,SE,135,1.3,1.7,59,0.00,,,0.00,,2013-01-07 22:33:00,
2013-01-07 23:38:00,50.9,36.1,30.26,SE,135,1.3,2.2,57,0.00,,,0.00,,2013-01-07 22:38:00,
2013-01-07 23:43:00,50.7,36.0,30.26,SE,135,0.8,1.3,57,0.00,,,0.00,,2013-01-07 22:43:00,
2013-01-07 23:48:00,50.4,36.0,30.26,SE,135,0.4,0.0,58,0.00,,,0.00,,2013-01-07 22:48:00,
2013-01-07 23:53:00,50.2,36.0,30.26,SE,135,0.0,0.0,58,0.00,,,0.00,,2013-01-07 22:53:00,
2013-01-07 23:58:00,50.0,35.2,30.26,SE,135,0.0,0.4,57,0.00,,,0.00,,2013-01-07 22:58:00,